Time;durP1;ratioP1;P1;durP2;ratioP2;P2;SDS_P1;SDS_P2;PMS_P1;PMS_P2;Temp;Humidity;BMP_temperature;BMP_pressure;BME280_temperature;BME280_humidity;BME280_pressure;Samples;Min_cycle;Max_cycle;Signal;HPM_P1;HPM_P2
2024/01/25 00:02:17;;;;;;;0.10;0.10;;;;;;;-140.72;0.00;52571.47;5049814;28;20471;-72
2024/01/25 00:04:42;;;;;;;0.10;0.10;;;;;;;-140.72;0.00;52539.00;5050127;28;20159;-73
2024/01/25 00:07:09;;;;;;;0.10;0.10;;;;;;;-140.72;0.00;52549.13;5045491;28;20091;-72
2024/01/25 00:09:34;;;;;;;0.10;0.10;;;;;;;-140.72;0.00;52553.19;5045317;28;20110;-72
2024/01/25 00:12:00;;;;;;;0.10;0.10;;;;;;;-140.72;0.00;52561.31;5044415;28;20083;-72
2024/01/25 00:14:25;;;;;;;0.10;0.10;;;;;;;-140.72;0.00;52508.56;5044058;28;20428;-72
2024/01/25 00:16:51;;;;;;;0.00;0.00;;;;;;;-140.72;0.00;52532.91;5048676;28;20029;-72
2024/01/25 00:19:17;;;;;;;0.52;0.52;;;;;;;-140.72;0.00;52585.66;5030834;28;20079;-72
2024/01/25 00:21:43;;;;;;;0.10;0.10;;;;;;;-140.72;0.00;52561.31;5023436;28;20106;-73
2024/01/25 00:24:11;;;;;;;0.10;0.10;;;;;;;-140.72;0.00;52553.19;5036058;28;20039;-73
2024/01/25 00:26:36;;;;;;;0.10;0.10;;;;;;;-140.72;0.00;52569.44;5047288;28;20048;-72
2024/01/25 00:29:02;;;;;;;0.10;0.10;;;;;;;-140.72;0.00;52520.72;5027984;28;20033;-72
2024/01/25 00:31:27;;;;;;;0.10;0.10;;;;;;;-140.72;0.00;52571.47;5064541;28;20040;-72
2024/01/25 00:33:52;;;;;;;0.10;0.10;;;;;;;-140.72;0.00;52557.25;5051498;28;20029;-72
2024/01/25 00:36:18;;;;;;;0.20;0.20;;;;;;;-140.72;0.00;52512.59;5047279;28;20548;-72
2024/01/25 00:38:43;;;;;;;0.63;0.63;;;;;;;-140.72;0.00;52577.53;5040970;28;20026;-72
2024/01/25 00:41:10;;;;;;;0.10;0.10;;;;;;;-140.72;0.00;52532.91;5049737;28;20576;-72
2024/01/25 00:43:35;;;;;;;0.10;0.10;;;;;;;-140.72;0.00;52498.41;5035386;28;20493;-72
2024/01/25 00:46:01;;;;;;;0.10;0.10;;;;;;;-140.72;0.00;52526.81;5049051;28;20021;-72
2024/01/25 00:48:27;;;;;;;0.10;0.10;;;;;;;-140.72;0.00;52571.47;5051944;28;20029;-72
2024/01/25 00:50:52;;;;;;;0.22;0.22;;;;;;;-140.72;0.00;52581.59;5046756;28;20218;-72
2024/01/25 00:53:18;;;;;;;0.10;0.10;;;;;;;-140.72;0.00;52516.66;5034703;28;20075;-72
2024/01/25 00:55:44;;;;;;;0.20;0.20;;;;;;;-140.72;0.00;52555.22;5053114;28;20029;-72
2024/01/25 00:58:09;;;;;;;0.52;0.52;;;;;;;-140.72;0.00;52593.78;5053560;28;20435;-72
2024/01/25 01:00:35;;;;;;;0.10;0.10;;;;;;;-140.72;0.00;52575.50;5053730;28;20086;-72
2024/01/25 01:03:03;;;;;;;0.10;0.10;;;;;;;-140.72;0.00;52536.97;5045288;28;20103;-72
2024/01/25 01:05:29;;;;;;;0.10;0.10;;;;;;;-140.72;0.00;52589.72;5033925;28;20029;-72
2024/01/25 01:07:55;;;;;;;0.10;0.10;;;;;;;-140.72;0.00;52565.38;5051570;28;20053;-71
2024/01/25 01:10:20;;;;;;;0.10;0.10;;;;;;;-140.72;0.00;52557.25;5033977;28;20103;-73
2024/01/25 01:12:45;;;;;;;0.10;0.10;;;;;;;-140.72;0.00;52549.13;5037784;28;20029;-72
2024/01/25 01:15:11;;;;;;;0.10;0.10;;;;;;;-140.72;0.00;52549.13;5040532;28;20120;-72
2024/01/25 01:17:36;;;;;;;0.10;0.10;;;;;;;-140.72;0.00;52555.22;5046568;28;20036;-72
2024/01/25 01:20:02;;;;;;;0.10;0.10;;;;;;;-140.72;0.00;52577.53;5044282;28;20022;-72
2024/01/25 01:22:27;;;;;;;0.10;0.10;;;;;;;-140.72;0.00;52595.81;5041062;28;20077;-72
2024/01/25 01:24:52;;;;;;;0.10;0.10;;;;;;;-140.72;0.00;52595.81;5032321;28;20025;-72
2024/01/25 01:27:20;;;;;;;0.10;0.10;;;;;;;-140.72;0.00;52573.50;5038764;28;20410;-72
2024/01/25 01:29:45;;;;;;;0.10;0.10;;;;;;;-140.72;0.00;52561.31;5053489;28;20033;-71
2024/01/25 01:35:32;;;;;;;0.10;0.10;;;;;;;-140.72;0.00;52539.00;5050318;28;20441;-72
2024/01/25 01:38:00;;;;;;;0.10;0.10;;;;;;;-140.72;0.00;52520.72;5054302;28;20025;-72
2024/01/25 01:40:25;;;;;;;0.10;0.10;;;;;;;-140.72;0.00;52508.56;5058644;28;20429;-73
2024/01/25 01:42:50;;;;;;;0.10;0.10;;;;;;;-140.72;0.00;52549.13;5062103;28;20063;-70
2024/01/25 01:45:16;;;;;;;0.10;0.10;;;;;;;-140.72;0.00;52575.50;5046879;28;20017;-70
2024/01/25 01:47:41;;;;;;;0.10;0.10;;;;;;;-140.72;0.00;52565.38;5047575;28;20079;-70
2024/01/25 01:50:09;;;;;;;0.10;0.10;;;;;;;-140.72;0.00;52614.06;5051159;28;20037;-72
2024/01/25 01:52:34;;;;;;;0.10;0.10;;;;;;;-140.72;0.00;52601.91;5041554;28;20072;-72
2024/01/25 01:55:00;;;;;;;0.20;0.20;;;;;;;-140.72;0.00;52575.50;5052108;28;20048;-70
2024/01/25 01:57:26;;;;;;;0.10;0.10;;;;;;;-140.72;0.00;52565.38;5030679;28;20343;-70
2024/01/25 01:59:52;;;;;;;0.10;0.10;;;;;;;-140.72;0.00;52520.72;5051423;28;20439;-71
2024/01/25 02:02:17;;;;;;;0.10;0.10;;;;;;;-140.72;0.00;52553.19;5023637;28;20076;-71
2024/01/25 02:04:43;;;;;;;0.10;0.10;;;;;;;-140.72;0.00;52530.88;5055818;28;20417;-71
2024/01/25 02:07:09;;;;;;;0.10;0.10;;;;;;;-140.72;0.00;52561.31;5044273;28;20370;-71
2024/01/25 02:09:35;;;;;;;0.10;0.10;;;;;;;-140.72;0.00;52581.59;5044399;28;20143;-71
2024/01/25 02:12:04;;;;;;;0.10;0.10;;;;;;;-140.72;0.00;52569.44;5039957;28;20479;-72
2024/01/25 02:14:30;;;;;;;0.10;0.10;;;;;;;-140.72;0.00;52557.25;5043181;28;20427;-71
2024/01/25 02:16:56;;;;;;;0.10;0.10;;;;;;;-140.72;0.00;52555.22;5040311;28;20371;-71
2024/01/25 02:19:22;;;;;;;0.10;0.10;;;;;;;-140.72;0.00;52551.16;5028007;28;20112;-71
2024/01/25 02:21:48;;;;;;;0.10;0.10;;;;;;;-140.72;0.00;52581.59;5023808;28;21070;-71
2024/01/25 02:24:13;;;;;;;0.10;0.10;;;;;;;-140.72;0.00;52605.94;5043828;28;20484;-71
2024/01/25 02:26:38;;;;;;;0.10;0.10;;;;;;;-140.72;0.00;52573.50;5049056;28;20043;-71
2024/01/25 02:29:04;;;;;;;0.10;0.10;;;;;;;-140.72;0.00;52599.88;5040524;28;20120;-71
2024/01/25 02:31:30;;;;;;;0.10;0.10;;;;;;;-140.72;0.00;52532.91;5043600;28;20363;-71
2024/01/25 02:33:56;;;;;;;0.10;0.10;;;;;;;-140.72;0.00;52569.44;5032829;28;20048;-71
2024/01/25 02:36:24;;;;;;;0.10;0.10;;;;;;;-140.72;0.00;52561.31;5043822;28;20037;-71
2024/01/25 02:38:49;;;;;;;0.10;0.10;;;;;;;-140.72;0.00;52622.19;5023663;28;20210;-72
2024/01/25 02:41:15;;;;;;;0.10;0.10;;;;;;;-140.72;0.00;52595.81;5027687;28;20040;-71
2024/01/25 02:43:40;;;;;;;0.10;0.10;;;;;;;-140.72;0.00;52597.84;5043989;28;20148;-71
2024/01/25 02:46:06;;;;;;;0.10;0.10;;;;;;;-140.72;0.00;52589.72;5025847;28;20031;-71
2024/01/25 02:48:32;;;;;;;0.10;0.10;;;;;;;-140.72;0.00;52607.97;5040086;28;20025;-71
2024/01/25 02:50:57;;;;;;;0.10;0.10;;;;;;;-140.72;0.00;52610.00;5042665;28;20073;-71
2024/01/25 02:53:23;;;;;;;0.20;0.20;;;;;;;-140.72;0.00;52571.47;5037627;28;20021;-71
2024/01/25 02:55:48;;;;;;;0.10;0.10;;;;;;;-140.72;0.00;52587.69;5041951;28;20116;-71
2024/01/25 02:58:13;;;;;;;0.10;0.10;;;;;;;-140.72;0.00;52536.97;5038950;28;20044;-71
2024/01/25 03:00:39;;;;;;;0.10;0.10;;;;;;;-140.72;0.00;52577.53;5041163;28;20025;-71
2024/01/25 03:03:04;;;;;;;0.10;0.10;;;;;;;-140.72;0.00;52573.50;5038288;28;20037;-71
2024/01/25 03:05:29;;;;;;;0.10;0.10;;;;;;;-140.72;0.00;52626.25;5039403;28;20057;-71
2024/01/25 03:07:55;;;;;;;0.10;0.10;;;;;;;-140.72;0.00;52597.84;5035650;28;20045;-71
2024/01/25 03:10:20;;;;;;;0.10;0.10;;;;;;;-140.72;0.00;52577.53;5044560;28;20029;-71
2024/01/25 03:12:46;;;;;;;0.10;0.10;;;;;;;-140.72;0.00;52577.53;5037308;28;20075;-71
2024/01/25 03:15:11;;;;;;;0.20;0.20;;;;;;;-140.72;0.00;52605.94;5051729;28;20071;-71
2024/01/25 03:17:37;;;;;;;0.20;0.20;;;;;;;-140.72;0.00;52630.31;5043076;28;20029;-70
2024/01/25 03:20:02;;;;;;;0.20;0.20;;;;;;;-140.72;0.00;52601.91;5043296;28;20027;-70
2024/01/25 03:22:28;;;;;;;0.20;0.20;;;;;;;-140.72;0.00;52575.50;5022061;28;20029;-71
2024/01/25 03:24:53;;;;;;;0.10;0.10;;;;;;;-140.72;0.00;52575.50;5072567;28;20029;-70
2024/01/25 03:27:18;;;;;;;0.10;0.10;;;;;;;-140.72;0.00;52610.00;5055108;28;20401;-71
2024/01/25 03:29:44;;;;;;;0.20;0.20;;;;;;;-140.72;0.00;52610.00;5046717;28;21385;-70
2024/01/25 03:32:10;;;;;;;0.10;0.10;;;;;;;-140.72;0.00;52581.59;5030040;28;20040;-70
2024/01/25 03:34:35;;;;;;;0.10;0.10;;;;;;;-140.72;0.00;52620.16;5056868;28;20044;-70
2024/01/25 03:37:00;;;;;;;0.10;0.10;;;;;;;-140.72;0.00;52591.75;5050546;28;20037;-70
2024/01/25 03:39:26;;;;;;;0.10;0.10;;;;;;;-140.72;0.00;52612.03;5032278;28;20032;-71
2024/01/25 03:41:51;;;;;;;0.10;0.10;;;;;;;-140.72;0.00;52593.78;5025787;28;20021;-71
2024/01/25 03:44:16;;;;;;;0.10;0.10;;;;;;;-140.72;0.00;52636.38;5041601;28;20057;-71
2024/01/25 03:46:42;;;;;;;0.10;0.10;;;;;;;-140.72;0.00;52628.28;5039815;28;20052;-70
2024/01/25 03:49:07;;;;;;;0.10;0.10;;;;;;;-140.72;0.00;52589.72;5051337;28;20132;-70
2024/01/25 03:51:32;;;;;;;0.10;0.10;;;;;;;-140.72;0.00;52626.25;5046403;28;20037;-71
2024/01/25 03:53:58;;;;;;;0.10;0.10;;;;;;;-140.72;0.00;52603.94;5043907;28;20045;-71
2024/01/25 03:56:24;;;;;;;0.10;0.10;;;;;;;-140.72;0.00;52593.78;5040927;28;20029;-71
2024/01/25 03:58:49;;;;;;;0.10;0.10;;;;;;;-140.72;0.00;52597.84;5043228;28;20033;-71
2024/01/25 04:01:15;;;;;;;0.10;0.10;;;;;;;-140.72;0.00;52662.78;5045453;28;20083;-71
2024/01/25 04:03:41;;;;;;;0.20;0.20;;;;;;;-140.72;0.00;52581.59;5042890;28;20033;-70
2024/01/25 04:06:06;;;;;;;0.10;0.10;;;;;;;-140.72;0.00;52605.94;5027709;28;20120;-71
2024/01/25 04:08:32;;;;;;;0.10;0.10;;;;;;;-140.72;0.00;52607.97;5043382;28;20092;-71
2024/01/25 04:10:57;;;;;;;0.10;0.10;;;;;;;-140.72;0.00;52591.75;5046926;28;20112;-71
2024/01/25 04:13:22;;;;;;;0.20;0.20;;;;;;;-140.72;0.00;52638.41;5049864;28;20051;-71
2024/01/25 04:15:48;;;;;;;0.10;0.10;;;;;;;-140.72;0.00;52634.38;5047312;28;20096;-71
2024/01/25 04:18:13;;;;;;;0.20;0.20;;;;;;;-140.72;0.00;52630.31;5032795;28;20029;-71
2024/01/25 04:20:39;;;;;;;0.10;0.10;;;;;;;-140.72;0.00;52644.50;5044560;28;20028;-71
2024/01/25 04:23:05;;;;;;;0.10;0.10;;;;;;;-140.72;0.00;52591.75;5030114;28;20037;-71
2024/01/25 04:25:30;;;;;;;0.10;0.10;;;;;;;-140.72;0.00;52605.94;5048444;28;20029;-71
2024/01/25 04:27:56;;;;;;;0.10;0.10;;;;;;;-140.72;0.00;52607.97;5043347;28;21493;-71
2024/01/25 04:30:21;;;;;;;0.10;0.10;;;;;;;-140.72;0.00;52591.75;5043784;28;20479;-75
2024/01/25 04:32:47;;;;;;;0.13;0.13;;;;;;;-140.72;0.00;52551.16;5045652;28;20387;-71
2024/01/25 04:35:12;;;;;;;0.10;0.10;;;;;;;-140.72;0.00;52630.31;5043908;28;20025;-71
2024/01/25 04:37:37;;;;;;;0.10;0.10;;;;;;;-140.72;0.00;52616.09;5042174;28;20082;-71
2024/01/25 04:40:04;;;;;;;0.10;0.10;;;;;;;-140.72;0.00;52597.84;5049321;28;20116;-71
2024/01/25 04:42:30;;;;;;;0.98;0.93;;;;;;;-140.72;0.00;52642.47;5049939;28;20029;-71
2024/01/25 04:44:55;;;;;;;0.10;0.10;;;;;;;-140.72;0.00;52597.84;5045094;28;20299;-71
2024/01/25 04:47:21;;;;;;;0.10;0.10;;;;;;;-140.72;0.00;52610.00;5041898;28;20036;-71
2024/01/25 04:49:47;;;;;;;0.10;0.10;;;;;;;-140.72;0.00;52605.94;5042262;28;20037;-71
2024/01/25 04:52:12;;;;;;;0.10;0.10;;;;;;;-140.72;0.00;52642.47;5043387;28;20048;-71
2024/01/25 04:54:37;;;;;;;0.10;0.10;;;;;;;-140.72;0.00;52612.03;5028188;28;20021;-71
2024/01/25 04:57:06;;;;;;;0.10;0.10;;;;;;;-140.72;0.00;52652.63;5042932;28;20029;-71
2024/01/25 04:59:32;;;;;;;0.10;0.10;;;;;;;-140.72;0.00;52610.00;5037983;28;20064;-71
2024/01/25 05:01:58;;;;;;;0.17;0.17;;;;;;;-140.72;0.00;52630.31;5048747;28;20029;-71
2024/01/25 05:04:23;;;;;;;0.20;0.20;;;;;;;-140.72;0.00;52561.31;5029599;28;20305;-71
2024/01/25 05:06:48;;;;;;;0.10;0.10;;;;;;;-140.72;0.00;52591.75;5046541;28;20247;-71
2024/01/25 05:09:14;;;;;;;0.20;0.20;;;;;;;-140.72;0.00;52607.97;5045686;28;20108;-71
2024/01/25 05:11:40;;;;;;;0.20;0.20;;;;;;;-140.72;0.00;52640.44;5071317;28;20112;-71
2024/01/25 05:14:05;;;;;;;0.10;0.10;;;;;;;-140.72;0.00;52595.81;5056325;28;20057;-71
2024/01/25 05:16:31;;;;;;;0.10;0.10;;;;;;;-140.72;0.00;52607.97;5059092;28;20067;-71
2024/01/25 05:18:56;;;;;;;0.20;0.20;;;;;;;-140.72;0.00;52601.91;5041033;28;20483;-71
2024/01/25 05:21:21;;;;;;;0.10;0.10;;;;;;;-140.72;0.00;52559.28;5047774;28;20032;-70
2024/01/25 05:23:47;;;;;;;0.10;0.10;;;;;;;-140.72;0.00;52555.22;5043429;28;20025;-71
2024/01/25 05:26:12;;;;;;;0.10;0.10;;;;;;;-140.72;0.00;52626.25;5041595;28;20482;-71
2024/01/25 05:28:38;;;;;;;0.10;0.10;;;;;;;-140.72;0.00;52593.78;5038247;28;20040;-71
2024/01/25 05:31:03;;;;;;;0.10;0.10;;;;;;;-140.72;0.00;52607.97;5028784;28;20163;-71
2024/01/25 05:33:28;;;;;;;0.10;0.10;;;;;;;-140.72;0.00;52601.91;5042621;28;20048;-71
2024/01/25 05:35:54;;;;;;;0.10;0.10;;;;;;;-140.72;0.00;52626.25;5030561;28;20025;-71
2024/01/25 05:38:19;;;;;;;0.10;0.10;;;;;;;-140.72;0.00;52886.00;5042723;28;20031;-74
2024/01/25 05:40:45;;;;;;;0.10;0.10;;;;;;;-140.72;100.00;52908.31;5028600;28;20115;-73
2024/01/25 05:43:10;;;;;;;0.10;0.10;;;;;;;-140.72;100.00;52948.91;5018848;28;20052;-73
2024/01/25 05:45:35;;;;;;;0.20;0.20;;;;;;;-140.72;100.00;53050.38;5042021;28;20033;-73
2024/01/25 05:48:00;;;;;;;0.10;0.10;;;;;;;-140.72;100.00;53691.75;5046484;28;20959;-74
2024/01/25 05:50:26;;;;;;;0.10;0.10;;;;;;;-140.72;100.00;54924.00;5028589;28;20051;-74
2024/01/25 05:52:51;;;;;;;0.10;0.10;;;;;;;-140.72;100.00;55943.41;5024241;28;20046;-73
2024/01/25 05:55:17;;;;;;;0.20;0.20;;;;;;;-140.72;100.00;56631.94;5034611;28;20430;-74
2024/01/25 05:57:44;;;;;;;0.10;0.10;;;;;;;-140.72;100.00;57235.28;5039312;28;20263;-71
2024/01/25 06:00:12;;;;;;;0.10;0.10;;;;;;;-140.72;100.00;58127.25;5027967;28;20028;-71
2024/01/25 06:02:38;;;;;;;0.10;0.10;;;;;;;-140.72;100.00;58466.63;5041571;28;20037;-71
2024/01/25 06:05:04;;;;;;;0.10;0.10;;;;;;;-140.72;100.00;58714.56;5037840;28;20490;-71
2024/01/25 06:07:29;;;;;;;0.20;0.20;;;;;;;-140.72;100.00;58881.22;5044708;28;20033;-72
2024/01/25 06:09:54;;;;;;;0.20;0.20;;;;;;;-140.72;100.00;59011.31;5016314;28;20538;-71
2024/01/25 06:12:19;;;;;;;0.10;0.10;;;;;;;-140.72;100.00;59173.91;5035004;28;20502;-72
2024/01/25 06:14:45;;;;;;;0.10;0.10;;;;;;;-140.72;100.00;59273.50;5047053;28;20104;-71
2024/01/25 06:17:10;;;;;;;0.20;0.20;;;;;;;-140.72;100.00;59446.28;5036943;28;20033;-71
2024/01/25 06:19:36;;;;;;;0.10;0.10;;;;;;;-140.72;100.00;59543.84;5038085;28;20037;-71
2024/01/25 06:22:02;;;;;;;0.10;0.10;;;;;;;-140.72;100.00;59686.16;5037742;28;20036;-71
2024/01/25 06:24:28;;;;;;;0.10;0.10;;;;;;;-140.72;100.00;59757.31;5046179;28;20615;-71
2024/01/25 06:26:53;;;;;;;0.10;0.10;;;;;;;-140.72;100.00;59830.50;5047193;28;20021;-71
2024/01/25 06:29:19;;;;;;;0.20;0.20;;;;;;;-140.72;100.00;59934.19;5039057;28;20375;-71
2024/01/25 06:31:44;;;;;;;0.20;0.20;;;;;;;-140.72;100.00;59985.00;5035287;28;20036;-71
2024/01/25 06:34:10;;;;;;;0.20;0.20;;;;;;;-140.72;100.00;60100.88;5031103;28;20033;-71
2024/01/25 06:36:36;;;;;;;0.10;0.10;;;;;;;-140.72;100.00;60161.88;5046178;28;20113;-71
2024/01/25 06:39:01;;;;;;;0.20;0.20;;;;;;;-140.72;100.00;60233.03;5044423;28;20107;-71
2024/01/25 06:41:27;;;;;;;0.10;0.10;;;;;;;-140.72;100.00;60302.16;5049113;28;20052;-71
2024/01/25 06:43:52;;;;;;;0.20;0.20;;;;;;;-140.72;100.00;60361.13;5047610;28;20029;-71
2024/01/25 06:46:17;;;;;;;0.20;0.20;;;;;;;-140.72;100.00;60418.06;5049607;28;20379;-72
2024/01/25 06:48:43;;;;;;;0.10;0.10;;;;;;;-140.72;100.00;60460.75;5039063;28;20494;-71
2024/01/25 06:51:56;;;;;;;0.10;0.10;;;;;;;-140.72;100.00;60503.44;5048670;28;20168;-71
2024/01/25 06:54:22;;;;;;;0.20;0.20;;;;;;;-140.72;100.00;60662.03;5048413;28;20081;-71
2024/01/25 06:56:47;;;;;;;0.10;0.10;;;;;;;-140.72;100.00;60696.63;5049108;28;20068;-72
2024/01/25 06:59:12;;;;;;;0.10;0.10;;;;;;;-140.72;100.00;60802.34;5043235;28;20088;-72
2024/01/25 07:01:38;;;;;;;0.10;0.10;;;;;;;-140.72;100.00;60881.66;5042051;28;20021;-75
2024/01/25 07:04:03;;;;;;;0.20;0.20;;;;;;;-140.72;100.00;60924.34;5043521;28;20035;-72
2024/01/25 07:06:29;;;;;;;0.10;0.10;;;;;;;-140.72;100.00;60914.19;5030036;28;20060;-71
2024/01/25 07:08:54;;;;;;;0.10;0.10;;;;;;;-140.72;100.00;61011.81;5039286;28;20577;-72
2024/01/25 07:11:21;;;;;;;0.10;0.10;;;;;;;-140.72;100.00;61028.06;5023740;28;20182;-73
2024/01/25 07:13:46;;;;;;;0.20;0.20;;;;;;;-140.72;100.00;61135.84;5024216;28;20029;-72
2024/01/25 07:16:11;;;;;;;0.10;0.10;;;;;;;-140.72;100.00;61196.84;5045491;28;20347;-73
2024/01/25 07:18:37;;;;;;;0.20;0.20;;;;;;;-140.72;100.00;61239.56;5041915;28;20068;-76
2024/01/25 07:21:02;;;;;;;0.10;0.10;;;;;;;-140.72;100.00;61345.31;5033073;28;20032;-71
2024/01/25 07:23:30;;;;;;;0.38;0.38;;;;;;;-140.72;100.00;61428.69;5049610;28;20453;-70
2024/01/25 07:25:55;;;;;;;0.10;0.10;;;;;;;-140.72;100.00;61558.84;5049482;28;20029;-71
2024/01/25 07:28:21;;;;;;;0.10;0.10;;;;;;;-140.72;100.00;61632.06;5051294;28;20497;-71
2024/01/25 07:30:49;;;;;;;0.10;0.10;;;;;;;-140.72;100.00;61786.66;5051901;28;20021;-70
2024/01/25 07:33:15;;;;;;;0.20;0.20;;;;;;;-140.72;100.00;61796.81;5025437;28;20159;-71
2024/01/25 07:35:45;;;;;;;0.10;0.10;;;;;;;-140.72;100.00;61918.84;5044827;28;20030;-71
2024/01/25 07:38:16;;;;;;;0.20;0.20;;;;;;;-140.72;100.00;62006.31;5026748;28;20026;-73
2024/01/25 07:43:59;;;;;;;0.10;0.10;;;;;;;-140.72;100.00;62276.84;5035682;28;20125;-70
2024/01/25 07:46:25;;;;;;;0.10;0.10;;;;;;;-140.72;100.00;62382.63;5035386;28;20465;-71
2024/01/25 07:49:38;;;;;;;0.10;0.10;;;;;;;-140.72;100.00;62476.22;5024916;28;20530;-71
2024/01/25 07:52:03;;;;;;;0.10;0.10;;;;;;;-140.72;100.00;62590.13;5041423;28;20082;-71
2024/01/25 07:54:29;;;;;;;0.10;0.10;;;;;;;-140.72;100.00;62710.16;5030790;28;20021;-71
2024/01/25 07:56:54;;;;;;;0.10;0.10;;;;;;;-140.72;100.00;62813.91;5031126;28;20021;-70
2024/01/25 07:59:19;;;;;;;0.10;0.10;;;;;;;-140.72;100.00;62864.78;5048480;28;20025;-71
2024/01/25 08:01:45;;;;;;;0.10;0.10;;;;;;;-140.72;100.00;62907.50;5033689;28;20398;-70
2024/01/25 08:04:10;;;;;;;0.10;0.10;;;;;;;-140.72;100.00;63062.13;5041243;28;20108;-71
2024/01/25 08:06:35;;;;;;;0.10;0.10;;;;;;;-140.72;100.00;63106.88;5037481;28;20078;-71
2024/01/25 08:09:01;;;;;;;0.10;0.10;;;;;;;-140.72;100.00;63194.38;5029312;28;20120;-71
2024/01/25 08:11:26;;;;;;;0.20;0.20;;;;;;;-140.72;100.00;63259.47;5048289;28;20075;-70
2024/01/25 08:13:51;;;;;;;0.20;0.20;;;;;;;-140.72;100.00;63320.53;5047538;28;20032;-71
2024/01/25 08:16:20;;;;;;;0.10;0.10;;;;;;;-140.72;100.00;63454.81;5023781;28;20026;-71
2024/01/25 08:18:49;;;;;;;0.10;0.10;;;;;;;-140.72;100.00;63487.38;5047696;28;20025;-71
2024/01/25 08:21:15;;;;;;;0.20;0.20;;;;;;;-140.72;100.00;63560.63;5044359;28;20029;-71
2024/01/25 08:23:41;;;;;;;0.10;0.10;;;;;;;-140.72;100.00;63609.47;5032238;28;20346;-70
2024/01/25 08:26:11;;;;;;;0.10;0.10;;;;;;;-140.72;100.00;63635.91;5030725;28;20049;-71
2024/01/25 08:28:39;;;;;;;0.10;0.10;;;;;;;-140.72;100.00;63688.81;5048387;28;20020;-71
2024/01/25 08:31:04;;;;;;;0.10;0.10;;;;;;;-140.72;100.00;63796.69;5037080;28;20478;-71
2024/01/25 08:33:30;;;;;;;0.10;0.10;;;;;;;-140.72;100.00;63755.97;5042575;28;20064;-71
2024/01/25 08:35:55;;;;;;;0.20;0.20;;;;;;;-140.72;100.00;63880.13;5047294;28;20410;-70
2024/01/25 08:38:21;;;;;;;0.10;0.10;;;;;;;-140.72;100.00;63892.31;5063077;28;20111;-70
2024/01/25 08:40:46;;;;;;;0.20;0.20;;;;;;;-140.72;100.00;63947.25;5046629;28;20020;-71
2024/01/25 08:43:11;;;;;;;0.10;0.10;;;;;;;-140.72;100.00;63973.72;5053292;28;20025;-70
2024/01/25 08:45:38;;;;;;;0.10;0.10;;;;;;;-140.72;100.00;63994.06;5047207;28;20021;-70
2024/01/25 08:48:04;;;;;;;0.20;0.20;;;;;;;-140.72;100.00;64079.53;5053848;28;20049;-71
2024/01/25 08:50:29;;;;;;;0.13;0.13;;;;;;;-140.72;100.00;64077.50;5043848;28;20147;-71
2024/01/25 08:52:54;;;;;;;0.10;0.10;;;;;;;-140.72;100.00;64110.06;5043237;28;20055;-71
2024/01/25 08:55:20;;;;;;;0.10;0.10;;;;;;;-140.72;100.00;64071.41;5043729;28;20040;-71
2024/01/25 08:57:45;;;;;;;0.10;0.10;;;;;;;-140.72;100.00;64160.94;5025845;28;20120;-71
2024/01/25 09:00:11;;;;;;;0.10;0.10;;;;;;;-140.72;100.00;64175.19;5059806;28;20029;-71
2024/01/25 09:02:37;;;;;;;0.10;0.10;;;;;;;-140.72;100.00;64215.91;5027674;28;20060;-71
2024/01/25 09:05:06;;;;;;;0.10;0.10;;;;;;;-140.72;100.00;64203.69;5029013;28;20519;-71
2024/01/25 09:07:32;;;;;;;0.10;0.10;;;;;;;-140.72;100.00;64226.06;5043343;28;20111;-71
2024/01/25 09:09:57;;;;;;;0.10;0.10;;;;;;;-140.72;100.00;64248.47;5053016;28;20392;-71
2024/01/25 09:12:23;;;;;;;0.10;0.10;;;;;;;-140.72;100.00;64262.72;5054209;28;20052;-71
2024/01/25 09:14:48;;;;;;;0.10;0.10;;;;;;;-140.72;100.00;64262.72;5053279;28;20448;-71
2024/01/25 09:17:15;;;;;;;0.10;0.10;;;;;;;-140.72;100.00;64242.34;5044092;28;20474;-70
2024/01/25 09:19:41;;;;;;;0.10;0.10;;;;;;;-140.72;100.00;64209.78;5045980;28;20106;-70
2024/01/25 09:22:07;;;;;;;0.10;0.10;;;;;;;-140.72;100.00;64193.50;5038980;28;20060;-70
2024/01/25 09:24:35;;;;;;;0.10;0.10;;;;;;;-140.72;100.00;64195.56;5043506;28;20029;-70
2024/01/25 09:27:04;;;;;;;0.10;0.10;;;;;;;-140.72;100.00;64138.56;5043213;28;20486;-70
2024/01/25 09:29:29;;;;;;;0.10;0.10;;;;;;;-140.72;100.00;64156.88;5050418;28;20467;-70
2024/01/25 09:31:57;;;;;;;0.10;0.10;;;;;;;-140.72;100.00;64120.25;5046693;28;20059;-70
2024/01/25 09:34:22;;;;;;;0.10;0.10;;;;;;;-140.72;100.00;64101.94;5047710;28;20445;-70
2024/01/25 09:36:47;;;;;;;0.10;0.10;;;;;;;-140.72;100.00;64046.97;5033556;28;20026;-70
2024/01/25 09:39:14;;;;;;;0.10;0.10;;;;;;;-140.72;100.00;64024.59;5053792;28;20032;-70
2024/01/25 09:41:40;;;;;;;0.10;0.10;;;;;;;-140.72;100.00;63947.25;5054133;28;20025;-70
2024/01/25 09:44:08;;;;;;;0.10;0.10;;;;;;;-140.72;100.00;63928.94;5033498;28;20041;-70
2024/01/25 09:46:36;;;;;;;0.20;0.20;;;;;;;-140.72;100.00;63867.91;5033492;28;20025;-70
2024/01/25 09:49:02;;;;;;;0.20;0.20;;;;;;;-140.72;100.00;63810.91;5055731;28;20029;-70
2024/01/25 09:51:37;;;;;;;0.10;0.10;;;;;;;-140.72;100.00;63753.94;5061547;28;20070;-70
2024/01/25 09:54:03;;;;;;;0.10;0.10;;;;;;;-140.72;100.00;63709.19;5052189;28;20040;-70
2024/01/25 09:56:31;;;;;;;0.38;0.38;;;;;;;-140.72;100.00;63664.41;5044048;28;20087;-70
2024/01/25 09:58:58;;;;;;;0.10;0.10;;;;;;;-140.72;100.00;63597.25;5034054;28;20037;-70
2024/01/25 10:01:23;;;;;;;0.10;0.10;;;;;;;-140.72;100.00;63497.56;5050452;28;20181;-71
2024/01/25 10:03:49;;;;;;;6.03;1.02;;;;;;;-140.72;100.00;63477.19;5050023;28;20028;-70
2024/01/25 10:06:15;;;;;;;0.10;0.10;;;;;;;-140.72;100.00;63481.28;5066336;28;20025;-70
2024/01/25 10:08:41;;;;;;;0.10;0.10;;;;;;;-140.72;100.00;63428.38;5052496;28;20045;-70
2024/01/25 10:11:14;;;;;;;0.10;0.10;;;;;;;-140.72;100.00;63365.28;5049364;28;20447;-70
2024/01/25 10:13:47;;;;;;;0.10;0.10;;;;;;;-140.72;100.00;63338.84;5048913;28;20485;-70
2024/01/25 10:16:19;;;;;;;0.10;0.10;;;;;;;-140.72;100.00;63281.88;5029454;28;20110;-70
2024/01/25 10:18:46;;;;;;;0.00;0.00;;;;;;;-140.72;100.00;63277.78;5045478;28;20026;-70
2024/01/25 10:21:13;;;;;;;0.20;0.20;;;;;;;-140.72;100.00;63224.91;5064914;28;20063;-70
2024/01/25 10:23:39;;;;;;;0.10;0.10;;;;;;;-140.72;100.00;63167.94;5052154;28;20029;-70
2024/01/25 10:26:05;;;;;;;0.55;0.55;;;;;;;-140.72;100.00;63094.69;5052448;28;20390;-70
2024/01/25 10:28:31;;;;;;;0.10;0.10;;;;;;;-140.72;100.00;63064.16;5057126;28;20454;-70
2024/01/25 10:30:57;;;;;;;0.10;0.10;;;;;;;-140.72;100.00;63035.69;5044461;28;20387;-70
2024/01/25 10:33:26;;;;;;;0.10;0.10;;;;;;;-140.72;100.00;62948.19;5046980;28;20028;-70
2024/01/25 10:35:55;;;;;;;0.10;0.10;;;;;;;-140.72;100.00;62935.97;5057746;28;20036;-70
2024/01/25 10:38:21;;;;;;;0.10;0.10;;;;;;;-140.72;100.00;62850.53;5060259;28;20389;-70
2024/01/25 10:40:47;;;;;;;0.10;0.10;;;;;;;-140.72;100.00;62828.16;5050439;28;20395;-70
2024/01/25 10:43:12;;;;;;;0.10;0.10;;;;;;;-140.72;100.00;62744.75;5036145;28;20053;-70
2024/01/25 10:45:38;;;;;;;0.17;0.17;;;;;;;-140.72;100.00;62720.34;5033375;28;20053;-70
2024/01/25 10:48:04;;;;;;;0.10;0.10;;;;;;;-140.72;100.00;62606.41;5051772;28;20430;-71
2024/01/25 10:50:30;;;;;;;0.17;0.17;;;;;;;-140.72;100.00;62624.72;5042326;28;20116;-70
2024/01/25 10:52:57;;;;;;;0.30;0.30;;;;;;;-140.72;100.00;62523.00;5058291;28;20475;-70
2024/01/25 10:55:22;;;;;;;0.10;0.10;;;;;;;-140.72;100.00;62504.69;5060161;28;20117;-70
2024/01/25 10:57:47;;;;;;;0.10;0.10;;;;;;;-140.72;100.00;62449.75;5047410;28;20108;-71
2024/01/25 11:00:16;;;;;;;0.10;0.10;;;;;;;-140.72;100.00;62366.38;5049604;28;20028;-71
2024/01/25 11:02:42;;;;;;;0.10;0.10;;;;;;;-140.72;100.00;62384.66;5062129;28;20017;-71
2024/01/25 11:05:18;;;;;;;0.10;0.10;;;;;;;-140.72;100.00;62321.59;5051685;28;20390;-71
2024/01/25 11:07:49;;;;;;;0.10;0.10;;;;;;;-140.72;100.00;62313.47;5041630;28;20079;-70
2024/01/25 11:10:18;;;;;;;0.10;0.10;;;;;;;-140.72;100.00;62234.13;5058943;28;20072;-71
2024/01/25 11:12:51;;;;;;;0.10;0.10;;;;;;;-140.72;100.00;62179.22;5055473;28;20029;-71
2024/01/25 11:15:31;;;;;;;0.10;0.10;;;;;;;-140.72;100.00;62118.19;5032637;28;20044;-71
2024/01/25 11:17:57;;;;;;;0.10;0.10;;;;;;;-140.72;100.00;62059.22;5033610;28;20021;-70
2024/01/25 11:20:27;;;;;;;0.10;0.10;;;;;;;-140.72;100.00;61935.13;5055620;28;20032;-71